createdAt,value
2017-08-24T00:00:25.122Z,18.30
2017-08-24T00:02:51.615Z,17.70
2017-08-24T00:05:18.055Z,20.60
2017-08-24T00:07:44.490Z,16.70
2017-08-24T00:10:10.909Z,21.13
2017-08-24T00:12:37.374Z,23.70
2017-08-24T00:15:03.796Z,22.03
2017-08-24T00:17:30.214Z,24.50
2017-08-24T00:19:56.635Z,24.83
2017-08-24T00:22:23.065Z,23.73
2017-08-24T00:24:49.484Z,24.50
2017-08-24T00:27:15.928Z,21.77
2017-08-24T00:29:42.366Z,25.83
2017-08-24T00:32:08.755Z,22.27
2017-08-24T00:34:35.153Z,26.00
2017-08-24T00:37:01.620Z,24.70
2017-08-24T00:39:28.096Z,25.93
2017-08-24T00:41:54.510Z,25.57
2017-08-24T00:44:20.904Z,26.67
2017-08-24T00:46:47.302Z,26.13
2017-08-24T00:49:13.749Z,23.27
2017-08-24T00:51:40.197Z,22.97
2017-08-24T00:54:06.651Z,24.27
2017-08-24T00:56:33.133Z,24.33
2017-08-24T00:58:59.546Z,23.30
2017-08-24T01:01:26.008Z,23.27
2017-08-24T01:03:52.453Z,24.13
2017-08-24T01:06:18.824Z,21.87
2017-08-24T01:08:45.206Z,23.30
2017-08-24T01:11:11.614Z,22.47
2017-08-24T01:13:38.040Z,26.57
2017-08-24T01:16:04.435Z,23.13
2017-08-24T01:18:30.840Z,25.00
2017-08-24T01:20:57.264Z,24.30
2017-08-24T01:23:23.928Z,25.63
2017-08-24T01:25:50.410Z,25.03
2017-08-24T01:28:16.854Z,25.83
2017-08-24T01:30:43.233Z,24.80
2017-08-24T01:33:09.617Z,25.37
2017-08-24T01:35:35.998Z,27.03
2017-08-24T01:38:02.425Z,25.00
2017-08-24T01:40:28.800Z,27.80
2017-08-24T01:42:55.149Z,25.20
2017-08-24T01:45:21.522Z,25.20
2017-08-24T01:47:47.927Z,26.60
2017-08-24T01:50:14.321Z,30.00
2017-08-24T01:52:40.766Z,32.23
2017-08-24T01:55:07.171Z,30.60
2017-08-24T01:57:33.542Z,30.93
2017-08-24T01:59:59.937Z,29.60
2017-08-24T02:02:26.344Z,32.30
2017-08-24T02:04:52.785Z,29.33
2017-08-24T02:07:19.181Z,31.17
2017-08-24T02:09:45.561Z,32.00
2017-08-24T02:12:11.933Z,31.33
2017-08-24T02:14:38.370Z,29.33
2017-08-24T02:17:04.828Z,31.67
2017-08-24T02:19:31.232Z,33.23
2017-08-24T02:21:57.624Z,34.37
2017-08-24T02:24:24.014Z,33.20
2017-08-24T02:26:50.403Z,33.27
2017-08-24T02:29:16.767Z,33.77
2017-08-24T02:31:43.120Z,36.27
2017-08-24T02:34:09.484Z,36.47
2017-08-24T02:36:35.874Z,41.60
2017-08-24T02:39:02.317Z,43.70
2017-08-24T02:41:28.705Z,42.47
2017-08-24T02:43:55.098Z,46.80
2017-08-24T02:46:21.498Z,43.20
2017-08-24T02:48:47.913Z,46.03
2017-08-24T02:51:14.303Z,42.17
2017-08-24T02:53:40.711Z,41.20
2017-08-24T02:56:07.127Z,38.73
2017-08-24T02:58:33.540Z,38.20
2017-08-24T03:00:59.925Z,38.77
2017-08-24T03:03:26.344Z,37.37
2017-08-24T03:05:52.755Z,34.23
2017-08-24T03:08:19.141Z,32.20
2017-08-24T03:10:45.547Z,32.10
2017-08-24T03:13:11.971Z,33.20
2017-08-24T03:15:38.363Z,31.40
2017-08-24T03:18:04.761Z,31.40
2017-08-24T03:20:31.165Z,27.00
2017-08-24T03:22:57.572Z,22.70
2017-08-24T03:25:24.002Z,20.90
2017-08-24T03:27:50.409Z,17.10
2017-08-24T03:30:16.793Z,15.43
2017-08-24T03:32:44.089Z,14.50
2017-08-24T03:35:10.470Z,10.80
2017-08-24T03:37:37.096Z,10.33
2017-08-24T03:40:03.497Z,9.47
2017-08-24T03:42:29.884Z,8.73
2017-08-24T03:44:56.254Z,7.27
2017-08-24T03:47:22.663Z,7.80
2017-08-24T03:49:49.032Z,7.50
2017-08-24T03:52:15.413Z,7.37
2017-08-24T03:54:41.809Z,7.37
2017-08-24T03:57:08.209Z,10.20
2017-08-24T03:59:34.597Z,9.40
2017-08-24T04:02:01.043Z,8.53
2017-08-24T04:04:27.448Z,10.87
2017-08-24T04:06:54.047Z,10.57
2017-08-24T04:09:20.423Z,10.87
2017-08-24T04:11:46.807Z,12.73
2017-08-24T04:14:13.206Z,15.00
2017-08-24T04:16:39.605Z,13.60
2017-08-24T04:19:06.025Z,13.57
2017-08-24T04:21:32.413Z,12.10
2017-08-24T04:23:58.794Z,12.67
2017-08-24T04:26:25.205Z,12.50
2017-08-24T04:28:51.574Z,12.60
2017-08-24T04:31:17.952Z,12.97
2017-08-24T04:33:44.303Z,13.03
2017-08-24T04:36:10.660Z,12.43
2017-08-24T04:38:37.040Z,11.50
2017-08-24T04:41:03.488Z,11.73
2017-08-24T04:43:29.860Z,12.00
2017-08-24T04:45:56.266Z,10.87
2017-08-24T04:48:22.655Z,12.37
2017-08-24T04:50:49.051Z,12.73
2017-08-24T04:53:15.518Z,14.10
2017-08-24T04:55:41.913Z,13.47
2017-08-24T04:58:08.313Z,15.87
2017-08-24T05:00:34.696Z,14.27
2017-08-24T05:03:01.073Z,15.90
2017-08-24T05:05:27.446Z,14.27
2017-08-24T05:07:53.807Z,15.30
2017-08-24T05:10:20.205Z,14.80
2017-08-24T05:12:46.603Z,14.20
2017-08-24T05:15:12.999Z,13.53
2017-08-24T05:17:39.402Z,14.03
2017-08-24T05:20:05.806Z,14.10
2017-08-24T05:22:32.200Z,14.63
2017-08-24T05:24:58.602Z,14.80
2017-08-24T05:27:24.996Z,13.90
2017-08-24T05:29:51.399Z,14.13
2017-08-24T05:32:17.799Z,18.40
2017-08-24T05:34:44.200Z,17.73
2017-08-24T05:37:10.596Z,18.50
2017-08-24T05:39:36.956Z,20.63
2017-08-24T05:42:03.398Z,18.47
2017-08-24T05:44:29.785Z,20.97
2017-08-24T05:46:56.184Z,21.97
2017-08-24T05:49:22.575Z,21.07
2017-08-24T05:51:48.994Z,20.70
2017-08-24T05:54:15.440Z,19.50
2017-08-24T05:56:41.868Z,17.37
2017-08-24T05:59:08.275Z,18.93
2017-08-24T06:01:34.649Z,19.20
2017-08-24T06:04:01.046Z,18.93
2017-08-24T06:06:27.445Z,19.33
2017-08-24T06:08:53.826Z,19.50
2017-08-24T06:11:20.187Z,20.83
2017-08-24T06:13:46.587Z,20.30
2017-08-24T06:16:12.970Z,19.00
2017-08-24T06:18:39.352Z,21.60
2017-08-24T06:21:05.761Z,19.80
2017-08-24T06:23:32.149Z,20.20
2017-08-24T06:25:58.507Z,21.53
2017-08-24T06:28:24.898Z,20.83
2017-08-24T06:30:51.319Z,18.57
2017-08-24T06:33:17.704Z,21.37
2017-08-24T06:35:44.349Z,20.30
2017-08-24T06:38:10.733Z,19.70
2017-08-24T06:40:37.120Z,19.67
2017-08-24T06:43:03.557Z,21.07
2017-08-24T06:45:29.954Z,20.33
2017-08-24T06:47:56.355Z,20.47
2017-08-24T06:50:22.694Z,20.97
2017-08-24T06:52:49.065Z,18.07
2017-08-24T06:55:15.454Z,19.77
2017-08-24T06:57:41.829Z,19.50
2017-08-24T07:00:08.187Z,20.90
2017-08-24T07:02:34.612Z,19.50
2017-08-24T07:05:01.005Z,19.40
2017-08-24T07:07:27.385Z,17.67
2017-08-24T07:09:53.761Z,18.77
2017-08-24T07:12:20.459Z,17.50
2017-08-24T07:14:46.831Z,17.83
2017-08-24T07:17:13.261Z,19.37
2017-08-24T07:19:39.644Z,19.80
2017-08-24T07:22:06.054Z,19.93
2017-08-24T07:24:32.484Z,20.77
2017-08-24T07:26:58.869Z,20.43
2017-08-24T07:29:25.289Z,19.67
2017-08-24T07:31:51.735Z,19.37
2017-08-24T07:34:18.173Z,23.67
2017-08-24T07:36:44.600Z,23.37
2017-08-24T07:39:10.990Z,24.40
2017-08-24T07:41:37.429Z,24.80
2017-08-24T07:44:03.845Z,25.17
2017-08-24T07:46:30.276Z,23.70
2017-08-24T07:48:56.675Z,24.73
2017-08-24T07:51:23.106Z,23.87
2017-08-24T07:53:49.536Z,23.00
2017-08-24T07:56:15.991Z,23.70
2017-08-24T07:58:42.392Z,21.90
2017-08-24T08:01:08.842Z,22.97
2017-08-24T08:03:35.266Z,23.23
2017-08-24T08:06:01.679Z,24.23
2017-08-24T08:08:28.082Z,25.00
2017-08-24T08:10:54.494Z,24.60
2017-08-24T08:13:20.846Z,24.47
2017-08-24T08:15:48.165Z,27.60
2017-08-24T08:18:14.617Z,26.20
2017-08-24T08:20:41.107Z,25.60
2017-08-24T08:23:07.545Z,26.20
2017-08-24T08:25:34.153Z,24.60
2017-08-24T08:28:00.605Z,24.53
2017-08-24T08:30:27.105Z,24.47
2017-08-24T08:32:53.646Z,23.83
2017-08-24T08:35:20.063Z,25.80
2017-08-24T08:37:46.420Z,24.70
2017-08-24T08:40:12.762Z,24.70
2017-08-24T08:42:39.138Z,23.80
2017-08-24T08:45:05.491Z,24.30
2017-08-24T08:47:31.858Z,25.37
2017-08-24T08:49:58.213Z,23.93
2017-08-24T08:52:24.569Z,23.37
2017-08-24T08:54:50.920Z,24.00
2017-08-24T08:57:17.320Z,23.30
2017-08-24T08:59:43.663Z,22.17
2017-08-24T09:02:10.035Z,22.27
2017-08-24T09:04:36.403Z,22.43
2017-08-24T09:07:02.773Z,25.43
2017-08-24T09:09:29.531Z,21.77
2017-08-24T09:11:55.874Z,24.07
2017-08-24T09:14:22.638Z,23.43
2017-08-24T09:16:49.009Z,24.20
2017-08-24T09:19:15.382Z,26.33
2017-08-24T09:21:41.729Z,23.80
2017-08-24T09:24:08.123Z,19.87
2017-08-24T09:26:34.555Z,17.77
2017-08-24T09:29:00.967Z,16.87
2017-08-24T09:31:27.343Z,15.90
2017-08-24T09:33:53.716Z,12.60
2017-08-24T09:36:20.095Z,13.43
2017-08-24T09:38:46.440Z,11.80
2017-08-24T09:41:12.785Z,10.93
2017-08-24T09:43:39.130Z,11.33
2017-08-24T09:46:05.488Z,12.67
2017-08-24T09:48:31.899Z,13.90
2017-08-24T09:50:58.291Z,14.83
2017-08-24T09:53:24.651Z,13.37
2017-08-24T09:55:51.013Z,12.97
2017-08-24T09:58:17.342Z,12.83
2017-08-24T10:00:43.719Z,13.73
2017-08-24T10:03:10.086Z,15.77
2017-08-24T10:05:42.461Z,15.90
2017-08-24T10:08:08.877Z,14.87
2017-08-24T10:10:35.334Z,15.57
2017-08-24T10:13:01.732Z,13.50
2017-08-24T10:15:28.118Z,15.43
2017-08-24T10:17:54.542Z,15.50
2017-08-24T10:20:20.900Z,15.23
2017-08-24T10:22:47.245Z,15.73
2017-08-24T10:25:13.635Z,17.83
2017-08-24T10:27:40.006Z,16.77
2017-08-24T10:30:06.370Z,19.10
2017-08-24T10:32:32.734Z,17.97
2017-08-24T10:34:59.093Z,17.77
2017-08-24T10:37:25.463Z,19.50
2017-08-24T10:39:51.804Z,17.50
2017-08-24T10:42:18.203Z,18.63
2017-08-24T10:44:44.545Z,17.27
2017-08-24T10:47:10.916Z,18.13
2017-08-24T10:49:37.287Z,16.87
2017-08-24T10:52:03.637Z,16.27
2017-08-24T10:54:30.001Z,15.10
2017-08-24T10:56:56.358Z,14.67
2017-08-24T10:59:22.746Z,13.10
2017-08-24T11:01:49.108Z,15.10
2017-08-24T11:04:15.491Z,16.20
2017-08-24T11:06:41.886Z,16.87
2017-08-24T11:09:08.253Z,16.30
2017-08-24T11:11:34.617Z,16.80
2017-08-24T11:14:00.995Z,16.17
2017-08-24T11:16:27.351Z,16.03
2017-08-24T11:18:53.743Z,18.27
2017-08-24T11:21:20.129Z,19.43
2017-08-24T11:23:46.497Z,16.83
2017-08-24T11:26:12.870Z,16.33
2017-08-24T11:28:39.232Z,17.33
2017-08-24T11:31:05.572Z,15.80
2017-08-24T11:33:31.937Z,16.10
2017-08-24T11:35:58.315Z,14.53
2017-08-24T11:38:24.719Z,14.33
2017-08-24T11:40:51.046Z,16.30
2017-08-24T11:43:17.418Z,13.37
2017-08-24T11:45:43.794Z,11.87
2017-08-24T11:48:10.188Z,11.63
2017-08-24T11:50:36.564Z,11.90
2017-08-24T11:53:02.930Z,10.63
2017-08-24T11:55:29.258Z,11.80
2017-08-24T11:57:55.595Z,11.80
2017-08-24T12:00:22.009Z,10.90
2017-08-24T12:02:48.386Z,13.43
2017-08-24T12:05:14.763Z,13.90
2017-08-24T12:07:41.112Z,13.70
2017-08-24T12:10:07.486Z,14.30
2017-08-24T12:12:33.834Z,15.13
2017-08-24T12:15:00.178Z,16.23
2017-08-24T12:17:26.557Z,15.43
2017-08-24T12:19:52.914Z,12.00
2017-08-24T12:22:19.294Z,12.70
2017-08-24T12:24:45.650Z,13.73
2017-08-24T12:27:12.019Z,10.27
2017-08-24T12:29:38.380Z,12.60
2017-08-24T12:32:04.731Z,15.03
2017-08-24T12:34:31.077Z,14.23
2017-08-24T12:36:57.413Z,15.07
2017-08-24T12:39:23.768Z,16.20
2017-08-24T12:41:50.116Z,16.20
2017-08-24T12:44:16.445Z,15.07
2017-08-24T12:46:42.808Z,13.90
2017-08-24T12:49:09.175Z,13.37
2017-08-24T12:51:35.543Z,13.27
2017-08-24T12:54:01.908Z,14.47
2017-08-24T12:56:28.300Z,13.17
2017-08-24T12:58:54.633Z,11.17
2017-08-24T13:01:20.981Z,11.43
2017-08-24T13:03:47.345Z,10.93
2017-08-24T13:06:13.693Z,11.13
2017-08-24T13:08:40.111Z,10.87
2017-08-24T13:11:06.497Z,9.27
2017-08-24T13:13:32.866Z,9.70
2017-08-24T13:15:59.224Z,9.83
2017-08-24T13:18:25.615Z,9.70
2017-08-24T13:20:52.310Z,10.87
2017-08-24T13:23:18.740Z,10.20
2017-08-24T13:25:45.375Z,11.30
2017-08-24T13:28:11.836Z,10.43
2017-08-24T13:30:38.275Z,9.10
2017-08-24T13:33:04.899Z,7.30
2017-08-24T13:35:31.290Z,6.50
2017-08-24T13:37:57.651Z,6.20
2017-08-24T13:40:24.049Z,6.10
2017-08-24T13:42:50.400Z,6.10
2017-08-24T13:45:16.804Z,5.80
2017-08-24T13:47:43.154Z,5.93
2017-08-24T13:50:09.592Z,5.63
2017-08-24T13:52:35.936Z,6.20
2017-08-24T13:55:02.336Z,6.13
2017-08-24T13:57:28.732Z,5.87
2017-08-24T13:59:55.133Z,6.20
2017-08-24T14:02:21.504Z,6.53
2017-08-24T14:04:47.876Z,5.57
2017-08-24T14:07:14.264Z,5.50
2017-08-24T14:09:40.615Z,4.20
2017-08-24T14:12:06.999Z,4.60
2017-08-24T14:14:33.451Z,3.90
2017-08-24T14:16:59.830Z,5.13
2017-08-24T14:19:26.213Z,4.33
2017-08-24T14:21:52.643Z,4.80
2017-08-24T14:24:19.052Z,3.77
2017-08-24T14:26:45.481Z,4.23
2017-08-24T14:29:11.867Z,4.70
2017-08-24T14:31:38.257Z,4.73
2017-08-24T14:34:04.676Z,4.60
2017-08-24T14:36:31.055Z,4.20
2017-08-24T14:38:57.426Z,4.67
2017-08-24T14:41:23.807Z,5.20
2017-08-24T14:43:50.192Z,5.03
2017-08-24T14:46:16.571Z,5.07
2017-08-24T14:48:42.940Z,4.60
2017-08-24T14:51:09.338Z,4.70
2017-08-24T14:53:35.720Z,4.10
2017-08-24T14:56:02.153Z,4.80
2017-08-24T14:58:29.136Z,4.90
2017-08-24T15:00:55.479Z,5.17
2017-08-24T15:03:21.887Z,5.70
2017-08-24T15:05:48.258Z,5.07
2017-08-24T15:08:14.622Z,5.00
2017-08-24T15:10:40.986Z,5.63
2017-08-24T15:13:07.376Z,4.90
2017-08-24T15:15:33.789Z,5.37
2017-08-24T15:18:00.276Z,4.13
2017-08-24T15:20:26.717Z,4.27
2017-08-24T15:22:53.087Z,5.30
2017-08-24T15:25:19.540Z,5.27
2017-08-24T15:27:45.979Z,4.87
2017-08-24T15:30:12.379Z,5.20
2017-08-24T15:32:38.735Z,4.70
2017-08-24T15:35:05.103Z,4.97
2017-08-24T15:37:31.569Z,5.00
2017-08-24T15:39:57.927Z,4.20
2017-08-24T15:42:24.339Z,5.10
2017-08-24T15:44:54.717Z,5.00
2017-08-24T15:47:21.125Z,5.07
2017-08-24T15:49:47.559Z,5.30
2017-08-24T15:52:14.434Z,5.57
2017-08-24T15:54:40.897Z,6.70
2017-08-24T15:57:07.383Z,5.00
2017-08-24T15:59:33.893Z,4.57
2017-08-24T16:02:00.311Z,4.40
2017-08-24T16:04:26.727Z,4.87
2017-08-24T16:06:53.156Z,5.03
2017-08-24T16:09:19.566Z,4.60
2017-08-24T16:11:45.974Z,5.37
2017-08-24T16:14:12.432Z,5.10
2017-08-24T16:16:38.834Z,4.03
2017-08-24T16:19:05.281Z,5.03
2017-08-24T16:21:33.660Z,5.10
2017-08-24T16:24:00.240Z,5.30
2017-08-24T16:26:26.676Z,4.10
2017-08-24T16:28:53.100Z,4.90
2017-08-24T16:31:19.531Z,5.23
2017-08-24T16:33:45.962Z,5.17
2017-08-24T16:36:12.432Z,4.90
2017-08-24T16:38:38.865Z,5.00
2017-08-24T16:41:05.727Z,5.23
2017-08-24T16:43:32.248Z,4.80
2017-08-24T16:45:58.735Z,5.10
2017-08-24T16:48:25.216Z,5.07
2017-08-24T16:50:51.661Z,4.53
2017-08-24T16:53:18.164Z,4.97
2017-08-24T16:55:44.624Z,5.13
2017-08-24T16:58:11.230Z,4.33
2017-08-24T17:00:38.427Z,4.53
2017-08-24T17:03:05.110Z,4.73
2017-08-24T17:05:31.520Z,4.90
2017-08-24T17:07:57.943Z,5.20
2017-08-24T17:10:24.365Z,4.60
2017-08-24T17:12:50.747Z,5.00
2017-08-24T17:15:17.227Z,5.00
2017-08-24T17:17:43.602Z,5.10
2017-08-24T17:20:10.019Z,4.60
2017-08-24T17:22:36.428Z,5.53
2017-08-24T17:25:02.872Z,4.60
2017-08-24T17:27:29.332Z,4.90
2017-08-24T17:29:55.802Z,4.87
2017-08-24T17:32:22.264Z,4.87
2017-08-24T17:34:48.753Z,4.50
2017-08-24T17:37:15.151Z,4.77
2017-08-24T17:39:41.656Z,4.90
2017-08-24T17:42:08.109Z,5.20
2017-08-24T17:44:35.192Z,5.00
2017-08-24T17:47:06.767Z,4.80
2017-08-24T17:49:34.140Z,4.27
2017-08-24T17:52:01.102Z,5.00
2017-08-24T17:54:27.538Z,4.63
2017-08-24T17:56:54.027Z,4.47
2017-08-24T17:59:20.407Z,4.67
2017-08-24T18:01:46.801Z,4.37
2017-08-24T18:04:13.269Z,5.63
2017-08-24T18:06:39.667Z,4.73
2017-08-24T18:09:06.142Z,5.30
2017-08-24T18:11:32.551Z,4.17
2017-08-24T18:13:59.000Z,5.10
2017-08-24T18:16:25.465Z,5.20
2017-08-24T18:18:51.913Z,4.80
2017-08-24T18:21:18.367Z,4.93
2017-08-24T18:23:44.873Z,5.43
2017-08-24T18:26:11.293Z,5.57
2017-08-24T18:28:37.789Z,5.33
2017-08-24T18:31:04.210Z,5.63
2017-08-24T18:33:30.704Z,5.03
2017-08-24T18:35:57.100Z,5.40
2017-08-24T18:38:23.568Z,5.80
2017-08-24T18:40:50.037Z,5.17
2017-08-24T18:43:16.549Z,5.50
2017-08-24T18:45:43.017Z,6.20
2017-08-24T18:48:09.560Z,6.20
2017-08-24T18:50:36.061Z,6.37
2017-08-24T18:53:02.607Z,6.20
2017-08-24T18:55:29.032Z,6.20
2017-08-24T18:57:55.474Z,6.27
2017-08-24T19:00:21.943Z,6.20
2017-08-24T19:02:48.315Z,5.70
2017-08-24T19:05:14.984Z,6.40
2017-08-24T19:07:41.391Z,6.03
2017-08-24T19:10:07.796Z,6.80
2017-08-24T19:12:34.166Z,6.27
2017-08-24T19:15:00.595Z,6.17
2017-08-24T19:17:27.020Z,6.20
2017-08-24T19:19:53.453Z,6.27
2017-08-24T19:22:19.871Z,6.73
2017-08-24T19:24:46.311Z,6.73
2017-08-24T19:27:12.776Z,7.03
2017-08-24T19:29:39.242Z,6.70
2017-08-24T19:32:05.750Z,7.80
2017-08-24T19:34:32.197Z,8.00
2017-08-24T19:36:58.615Z,7.80
2017-08-24T19:39:25.167Z,7.40
2017-08-24T19:41:51.801Z,7.53
2017-08-24T19:44:18.214Z,6.27
2017-08-24T19:46:44.673Z,7.03
2017-08-24T19:49:11.555Z,7.97
2017-08-24T19:51:38.031Z,7.80
2017-08-24T19:54:04.569Z,7.80
2017-08-24T19:56:31.013Z,8.07
2017-08-24T19:58:57.518Z,7.30
2017-08-24T20:01:24.389Z,6.90
2017-08-24T20:03:50.883Z,7.23
2017-08-24T20:06:17.423Z,7.90
2017-08-24T20:08:43.872Z,7.53
2017-08-24T20:11:10.393Z,7.43
2017-08-24T20:13:36.828Z,7.77
2017-08-24T20:16:03.243Z,7.87
2017-08-24T20:18:29.719Z,8.23
2017-08-24T20:20:56.159Z,8.20
2017-08-24T20:23:22.705Z,7.57
2017-08-24T20:25:49.203Z,7.90
2017-08-24T20:28:15.681Z,8.80
2017-08-24T20:30:42.226Z,7.93
2017-08-24T20:33:08.719Z,9.20
2017-08-24T20:35:35.903Z,9.10
2017-08-24T20:38:02.396Z,8.70
2017-08-24T20:40:36.017Z,8.47
2017-08-24T20:43:13.616Z,7.30
2017-08-24T20:45:40.021Z,7.10
2017-08-24T20:48:06.431Z,8.33
2017-08-24T20:50:32.905Z,8.10
2017-08-24T20:52:59.300Z,7.87
2017-08-24T20:55:25.728Z,8.37
2017-08-24T20:57:52.221Z,8.57
2017-08-24T21:00:18.715Z,8.20
2017-08-24T21:02:45.168Z,8.50
2017-08-24T21:05:11.624Z,7.70
2017-08-24T21:07:38.047Z,8.10
2017-08-24T21:10:04.559Z,8.07
2017-08-24T21:12:30.991Z,7.70
2017-08-24T21:14:57.407Z,7.67
2017-08-24T21:17:23.851Z,7.33
2017-08-24T21:19:50.273Z,7.20
2017-08-24T21:22:21.549Z,7.93
2017-08-24T21:24:48.153Z,8.10
2017-08-24T21:27:14.577Z,7.50
2017-08-24T21:29:41.000Z,8.33
2017-08-24T21:32:07.473Z,8.00
2017-08-24T21:34:33.870Z,7.20
2017-08-24T21:37:00.283Z,9.17
2017-08-24T21:39:26.688Z,8.67
2017-08-24T21:41:53.296Z,9.10
2017-08-24T21:44:20.001Z,8.70
2017-08-24T21:46:46.450Z,7.30
2017-08-24T21:49:12.890Z,8.97
2017-08-24T21:51:39.331Z,8.10
2017-08-24T21:54:05.772Z,7.23
2017-08-24T21:56:32.220Z,7.70
2017-08-24T21:58:58.597Z,7.30
2017-08-24T22:01:26.036Z,8.10
2017-08-24T22:03:52.489Z,8.20
2017-08-24T22:06:18.915Z,7.77
2017-08-24T22:08:45.770Z,7.50
2017-08-24T22:11:12.195Z,7.93
2017-08-24T22:13:38.640Z,7.10
2017-08-24T22:16:05.084Z,7.20
2017-08-24T22:18:31.927Z,6.93
2017-08-24T22:20:59.318Z,7.90
2017-08-24T22:23:25.855Z,7.30
2017-08-24T22:25:56.370Z,7.93
2017-08-24T22:28:22.844Z,6.40
2017-08-24T22:30:49.261Z,7.33
2017-08-24T22:33:15.666Z,6.83
2017-08-24T22:35:42.104Z,8.20
2017-08-24T22:38:08.584Z,6.77
2017-08-24T22:40:35.036Z,7.50
2017-08-24T22:43:01.449Z,7.17
2017-08-24T22:45:27.876Z,8.00
2017-08-24T22:47:54.308Z,6.70
2017-08-24T22:50:20.887Z,7.20
2017-08-24T22:52:47.352Z,6.83
2017-08-24T22:55:19.630Z,6.80
2017-08-24T22:57:52.117Z,7.80
2017-08-24T23:00:24.397Z,7.27
2017-08-24T23:02:56.664Z,6.80
2017-08-24T23:05:23.103Z,6.70
2017-08-24T23:07:49.552Z,7.03
2017-08-24T23:10:16.011Z,7.93
2017-08-24T23:12:42.436Z,7.90
2017-08-24T23:15:08.839Z,6.80
2017-08-24T23:17:35.351Z,7.50
2017-08-24T23:20:01.763Z,6.63
2017-08-24T23:22:28.154Z,5.40
2017-08-24T23:24:54.745Z,6.90
2017-08-24T23:27:21.236Z,6.90
2017-08-24T23:29:48.619Z,7.10
2017-08-24T23:32:15.120Z,7.03
2017-08-24T23:34:41.624Z,7.50
2017-08-24T23:37:08.072Z,7.70
2017-08-24T23:39:34.741Z,7.23
2017-08-24T23:42:01.156Z,6.40
2017-08-24T23:44:27.701Z,6.13
2017-08-24T23:46:54.306Z,6.77
2017-08-24T23:49:21.615Z,6.40
2017-08-24T23:51:48.071Z,6.77
2017-08-24T23:54:14.554Z,6.40
2017-08-24T23:56:41.857Z,6.93
2017-08-24T23:59:08.521Z,7.90
